Time;durP1;ratioP1;P1;durP2;ratioP2;P2;SDS_P1;SDS_P2;PMS_P1;PMS_P2;Temp;Humidity;BMP_temperature;BMP_pressure;BME280_temperature;BME280_humidity;BME280_pressure;Samples;Min_cycle;Max_cycle;Signal;HPM_P1;HPM_P2
2020/12/15 00:02:24;;;;;;;1999.90;999.90;;;8.50;99.90;;;;;;4881112;29;20611;-81
2020/12/15 00:05:07;;;;;;;1999.90;999.90;;;8.50;99.90;;;;;;4935850;29;20180;-81
2020/12/15 00:08:09;;;;;;;1999.90;999.90;;;8.50;99.90;;;;;;4959325;28;20186;-81
2020/12/15 00:10:40;;;;;;;1999.90;999.90;;;8.50;99.90;;;;;;4943697;29;20175;-80
2020/12/15 00:13:11;;;;;;;1999.90;999.90;;;8.50;99.90;;;;;;4958921;29;20196;-80
2020/12/15 00:15:42;;;;;;;1999.90;999.90;;;8.50;99.90;;;;;;4958501;29;20639;-80
2020/12/15 00:18:07;;;;;;;1999.90;999.90;;;8.50;99.90;;;;;;4958297;28;20182;-79
2020/12/15 00:20:38;;;;;;;1999.90;999.90;;;8.50;99.90;;;;;;4961714;29;20243;-79
2020/12/15 00:23:06;;;;;;;1999.90;999.90;;;8.50;99.90;;;;;;4961592;28;20168;-79
2020/12/15 00:25:32;;;;;;;1999.90;999.90;;;8.50;99.90;;;;;;4943581;29;20547;-79
2020/12/15 00:27:58;;;;;;;1999.90;999.90;;;8.40;99.90;;;;;;4943320;29;20235;-78
2020/12/15 00:30:27;;;;;;;1999.90;999.90;;;8.40;99.90;;;;;;4961019;29;20567;-79
2020/12/15 00:32:53;;;;;;;1999.90;999.90;;;8.30;99.90;;;;;;4960252;29;20191;-78
2020/12/15 00:35:22;;;;;;;1999.90;999.90;;;8.30;99.90;;;;;;4960265;29;20179;-78
2020/12/15 00:37:48;;;;;;;1999.90;999.90;;;8.30;99.90;;;;;;4943245;29;20961;-78
2020/12/15 00:40:14;;;;;;;1999.90;999.90;;;8.20;99.90;;;;;;4942735;29;20175;-78
2020/12/15 00:42:39;;;;;;;1999.90;999.90;;;8.20;99.90;;;;;;4957917;29;20287;-78
2020/12/15 00:45:05;;;;;;;1999.90;999.90;;;8.20;99.90;;;;;;4942593;29;20827;-78
2020/12/15 00:47:31;;;;;;;1999.90;999.90;;;8.20;99.90;;;;;;4959558;29;20172;-78
2020/12/15 00:49:57;;;;;;;1999.90;999.90;;;8.10;99.90;;;;;;4959161;29;20902;-78
2020/12/15 00:52:27;;;;;;;1999.90;999.90;;;8.10;99.90;;;;;;4958781;29;20203;-78
2020/12/15 00:54:52;;;;;;;1999.90;999.90;;;8.10;99.90;;;;;;4959100;29;20187;-78
2020/12/15 00:57:19;;;;;;;1999.90;999.90;;;8.10;99.90;;;;;;4959421;29;20699;-78
2020/12/15 00:59:45;;;;;;;1999.90;999.90;;;8.10;99.90;;;;;;4959375;29;20204;-78
2020/12/15 01:02:10;;;;;;;1999.90;999.90;;;8.00;99.90;;;;;;4942224;29;20238;-78
2020/12/15 01:04:36;;;;;;;1999.90;999.90;;;7.90;99.90;;;;;;4942390;29;20478;-78
2020/12/15 01:07:01;;;;;;;1999.90;999.90;;;8.00;99.90;;;;;;4959206;29;20258;-78
2020/12/15 01:09:27;;;;;;;1999.90;999.90;;;8.00;99.90;;;;;;4959681;29;20203;-78
2020/12/15 01:11:53;;;;;;;1999.90;999.90;;;8.00;99.90;;;;;;4959601;29;20167;-78
2020/12/15 01:14:18;;;;;;;1999.90;999.90;;;8.00;99.90;;;;;;4959876;29;20168;-78
2020/12/15 01:16:44;;;;;;;1999.90;999.90;;;8.00;99.90;;;;;;4959736;29;20230;-78
2020/12/15 01:19:12;;;;;;;1999.90;999.90;;;7.90;99.90;;;;;;4960070;29;20676;-78
2020/12/15 01:21:37;;;;;;;1999.90;999.90;;;7.90;99.90;;;;;;4942305;29;20179;-78
2020/12/15 01:24:03;;;;;;;1999.90;999.90;;;7.80;99.90;;;;;;4941841;29;20172;-78
2020/12/15 01:26:29;;;;;;;1999.90;999.90;;;7.80;99.90;;;;;;4959441;29;20200;-78
2020/12/15 01:28:54;;;;;;;1999.90;999.90;;;7.80;99.90;;;;;;4959103;29;20627;-78
2020/12/15 01:31:27;;;;;;;1999.90;999.90;;;7.80;99.90;;;;;;4940865;29;20266;-78
2020/12/15 01:33:53;;;;;;;1999.90;999.90;;;7.70;99.90;;;;;;4959711;29;20331;-78
2020/12/15 01:36:34;;;;;;;1999.90;999.90;;;7.70;99.90;;;;;;4960270;29;20164;-78
2020/12/15 01:39:00;;;;;;;1999.90;999.90;;;7.70;99.90;;;;;;4942121;29;20168;-78
2020/12/15 01:41:26;;;;;;;1999.90;999.90;;;7.70;99.90;;;;;;4958851;29;20168;-78
2020/12/15 01:43:57;;;;;;;1999.90;999.90;;;7.70;99.90;;;;;;4941366;29;20273;-78
2020/12/15 01:46:24;;;;;;;1999.90;999.90;;;7.60;99.90;;;;;;4958953;29;20188;-78
2020/12/15 01:48:50;;;;;;;1999.90;999.90;;;7.60;99.90;;;;;;4959001;29;20346;-78
2020/12/15 01:51:16;;;;;;;1999.90;999.90;;;7.60;99.90;;;;;;4958678;29;20164;-78
2020/12/15 01:53:46;;;;;;;1999.90;999.90;;;7.60;99.90;;;;;;4941427;29;20205;-79
2020/12/15 01:56:12;;;;;;;1999.90;999.90;;;7.60;99.90;;;;;;4941813;29;20451;-78
2020/12/15 01:58:42;;;;;;;1999.90;999.90;;;7.60;99.90;;;;;;4958517;29;20175;-78
2020/12/15 02:01:08;;;;;;;1999.90;999.90;;;7.60;99.90;;;;;;4958916;29;20203;-78
2020/12/15 02:03:34;;;;;;;1999.90;999.90;;;7.60;99.90;;;;;;4958605;29;20168;-78
2020/12/15 02:06:00;;;;;;;1999.90;999.90;;;7.60;99.90;;;;;;4958353;29;20197;-78
2020/12/15 02:08:25;;;;;;;1999.90;999.90;;;7.70;99.90;;;;;;4958212;29;20636;-79
2020/12/15 02:10:51;;;;;;;1999.90;999.90;;;7.70;99.90;;;;;;4940732;29;20183;-78
2020/12/15 02:13:17;;;;;;;1999.90;999.90;;;7.70;99.90;;;;;;4958023;29;20311;-78
2020/12/15 02:15:43;;;;;;;1999.90;999.90;;;7.80;99.90;;;;;;4958290;29;20172;-78
2020/12/15 02:18:08;;;;;;;1999.90;999.90;;;7.80;99.90;;;;;;4957911;29;20178;-79
2020/12/15 02:20:39;;;;;;;1999.90;999.90;;;7.70;99.90;;;;;;4958210;29;20223;-79
2020/12/15 02:23:05;;;;;;;1999.90;999.90;;;7.70;99.90;;;;;;4958483;29;20164;-78
2020/12/15 02:25:31;;;;;;;1999.90;999.90;;;7.70;99.90;;;;;;4958245;29;20626;-79
2020/12/15 02:27:56;;;;;;;1999.90;999.90;;;7.70;99.90;;;;;;4940895;29;20175;-78
2020/12/15 02:30:22;;;;;;;1999.90;999.90;;;7.80;99.90;;;;;;4957722;29;20175;-78
2020/12/15 02:32:48;;;;;;;1999.90;999.90;;;7.70;99.90;;;;;;4958449;29;20192;-78
2020/12/15 02:35:14;;;;;;;1999.90;999.90;;;7.70;99.90;;;;;;4957797;29;20168;-78
2020/12/15 02:37:40;;;;;;;1999.90;999.90;;;7.60;99.90;;;;;;4957964;29;20160;-79
2020/12/15 02:40:06;;;;;;;1999.90;999.90;;;7.60;99.90;;;;;;4957692;29;20646;-78
2020/12/15 02:42:32;;;;;;;1999.90;999.90;;;7.60;99.90;;;;;;4957477;28;20188;-78
2020/12/15 02:44:59;;;;;;;1999.90;999.90;;;7.60;99.90;;;;;;4958115;29;20392;-78
2020/12/15 02:47:25;;;;;;;1999.90;999.90;;;7.60;99.90;;;;;;4958064;29;20179;-79
2020/12/15 02:49:50;;;;;;;1999.90;999.90;;;7.60;99.90;;;;;;4957872;29;20588;-79
2020/12/15 02:52:16;;;;;;;1999.90;999.90;;;7.60;99.90;;;;;;4958017;29;20538;-79
2020/12/15 02:54:42;;;;;;;1999.90;999.90;;;7.60;99.90;;;;;;4957660;29;20192;-79
2020/12/15 02:57:09;;;;;;;1999.90;999.90;;;7.70;99.90;;;;;;4958075;29;20544;-78
2020/12/15 02:59:34;;;;;;;1999.90;999.90;;;7.70;99.90;;;;;;4957790;29;20499;-79
2020/12/15 03:02:00;;;;;;;1999.90;999.90;;;7.70;99.90;;;;;;4957498;29;20652;-79
2020/12/15 03:04:26;;;;;;;1999.90;999.90;;;7.70;99.90;;;;;;4958355;29;20168;-79
2020/12/15 03:06:51;;;;;;;1999.90;999.90;;;7.70;99.90;;;;;;4958186;28;20183;-78
2020/12/15 03:09:17;;;;;;;1999.90;999.90;;;7.60;99.90;;;;;;4957859;29;20175;-79
2020/12/15 03:11:42;;;;;;;1999.90;999.90;;;7.70;99.90;;;;;;4958100;29;20160;-79
2020/12/15 03:14:09;;;;;;;1999.90;999.90;;;7.70;99.90;;;;;;4958245;29;20296;-78
2020/12/15 03:16:35;;;;;;;1999.90;999.90;;;7.70;99.90;;;;;;4958327;29;20227;-79
2020/12/15 03:19:01;;;;;;;1999.90;999.90;;;7.70;99.90;;;;;;4956909;29;20191;-79
2020/12/15 03:21:27;;;;;;;1999.90;999.90;;;7.70;99.90;;;;;;4958594;29;20745;-79
2020/12/15 03:23:54;;;;;;;1999.90;999.90;;;7.70;99.90;;;;;;4958779;29;20156;-80
2020/12/15 03:26:19;;;;;;;1999.90;999.90;;;7.60;99.90;;;;;;4957579;29;20164;-79
2020/12/15 03:28:45;;;;;;;1999.90;999.90;;;7.60;99.90;;;;;;4958326;29;20175;-78
2020/12/15 03:31:11;;;;;;;1999.90;999.90;;;7.60;99.90;;;;;;4940850;29;20171;-79
2020/12/15 03:33:38;;;;;;;1999.90;999.90;;;7.60;99.90;;;;;;4958016;29;20188;-78
2020/12/15 03:36:03;;;;;;;1999.90;999.90;;;7.60;99.90;;;;;;4958336;29;20583;-78
2020/12/15 03:38:29;;;;;;;1999.90;999.90;;;7.60;99.90;;;;;;4956940;29;20168;-78
2020/12/15 03:40:55;;;;;;;1999.90;999.90;;;7.60;99.90;;;;;;4957917;29;20175;-79
2020/12/15 03:43:20;;;;;;;1999.90;999.90;;;7.60;99.90;;;;;;5045581;23;20231;-82
2020/12/15 03:45:46;;;;;;;1999.90;999.90;;;7.60;99.90;;;;;;4977524;28;20204;-82
2020/12/15 03:48:13;;;;;;;1999.90;999.90;;;7.70;99.90;;;;;;4976170;28;20639;-82
2020/12/15 03:50:39;;;;;;;1999.90;999.90;;;7.70;99.90;;;;;;4960019;28;20164;-82
2020/12/15 03:53:05;;;;;;;1999.90;999.90;;;7.70;99.90;;;;;;4977592;28;20191;-82
2020/12/15 03:55:30;;;;;;;1999.90;999.90;;;7.70;99.90;;;;;;4964526;28;20262;-82
2020/12/15 03:57:56;;;;;;;1999.90;999.90;;;7.60;99.90;;;;;;4981611;28;20646;-81
2020/12/15 04:00:22;;;;;;;1999.90;999.90;;;7.60;99.90;;;;;;4981567;28;20190;-82
2020/12/15 04:02:48;;;;;;;1999.90;999.90;;;7.60;99.90;;;;;;4981153;28;20203;-81
2020/12/15 04:05:14;;;;;;;1999.90;999.90;;;7.60;99.90;;;;;;4964178;28;20419;-81
2020/12/15 04:07:41;;;;;;;1999.90;999.90;;;7.60;99.90;;;;;;4979625;28;20493;-81
2020/12/15 04:10:07;;;;;;;1999.90;999.90;;;7.70;99.90;;;;;;4981101;28;20425;-81
2020/12/15 04:12:33;;;;;;;1999.90;999.90;;;7.70;99.90;;;;;;4981236;28;20183;-82
2020/12/15 04:14:58;;;;;;;1999.90;999.90;;;7.60;99.90;;;;;;4981144;28;20406;-81
2020/12/15 04:17:24;;;;;;;1999.90;999.90;;;7.60;99.90;;;;;;4981555;28;20171;-81
2020/12/15 04:19:49;;;;;;;1999.90;999.90;;;7.70;99.90;;;;;;4981257;28;20164;-82
2020/12/15 04:22:15;;;;;;;1999.90;999.90;;;7.70;99.90;;;;;;4980929;28;20197;-82
2020/12/15 04:24:41;;;;;;;1999.90;999.90;;;7.70;99.90;;;;;;4980918;28;20646;-82
2020/12/15 04:27:06;;;;;;;1999.90;999.90;;;7.80;99.90;;;;;;4981024;28;20181;-82
2020/12/15 04:29:32;;;;;;;1999.90;999.90;;;7.80;99.90;;;;;;4980616;28;20174;-82
2020/12/15 04:31:58;;;;;;;1999.90;999.90;;;7.70;99.90;;;;;;4981098;28;20417;-82
2020/12/15 04:34:24;;;;;;;1999.90;999.90;;;7.70;99.90;;;;;;4980953;28;20163;-82
2020/12/15 04:36:50;;;;;;;1999.90;999.90;;;7.80;99.90;;;;;;4980648;28;20163;-82
2020/12/15 04:39:16;;;;;;;1999.90;999.90;;;7.80;99.90;;;;;;4979292;28;20178;-81
2020/12/15 04:41:42;;;;;;;1999.90;999.90;;;7.80;99.90;;;;;;4980661;28;20175;-81
2020/12/15 04:44:09;;;;;;;1999.90;999.90;;;7.80;99.90;;;;;;4982310;28;20168;-82
2020/12/15 04:47:00;;;;;;;1999.90;999.90;;;7.80;99.90;;;;;;4984715;28;20171;-81
2020/12/15 04:49:28;;;;;;;1999.90;999.90;;;7.80;99.90;;;;;;4963912;28;20163;-82
2020/12/15 04:51:58;;;;;;;1999.90;999.90;;;7.80;99.90;;;;;;4980722;28;20167;-82
2020/12/15 04:54:49;;;;;;;1999.90;999.90;;;7.80;99.90;;;;;;4963530;28;20623;-81
2020/12/15 04:57:19;;;;;;;1999.90;999.90;;;7.80;99.90;;;;;;4980883;28;20595;-82
2020/12/15 04:59:48;;;;;;;1999.90;999.90;;;7.80;99.90;;;;;;4963007;28;20198;-82
2020/12/15 05:02:14;;;;;;;1999.90;999.90;;;7.90;99.90;;;;;;4963293;28;20174;-82
2020/12/15 05:04:41;;;;;;;1999.90;999.90;;;7.90;99.90;;;;;;4963009;28;20183;-81
2020/12/15 05:07:09;;;;;;;1999.90;999.90;;;7.90;99.90;;;;;;4963598;28;20171;-82
2020/12/15 05:09:37;;;;;;;1999.90;999.90;;;7.90;99.90;;;;;;4980201;28;20254;-81
2020/12/15 05:12:03;;;;;;;1999.90;999.90;;;7.90;99.90;;;;;;4963030;28;20183;-82
2020/12/15 05:14:28;;;;;;;1999.90;999.90;;;7.90;99.90;;;;;;4963031;28;20202;-82
2020/12/15 05:16:54;;;;;;;1999.90;999.90;;;7.90;99.90;;;;;;4980330;28;20163;-82
2020/12/15 05:19:23;;;;;;;1999.90;999.90;;;7.80;99.90;;;;;;4978592;28;20595;-82
2020/12/15 05:21:59;;;;;;;1999.90;999.90;;;7.90;99.90;;;;;;4980247;28;20167;-82
2020/12/15 05:24:29;;;;;;;1999.90;999.90;;;7.90;99.90;;;;;;4963331;28;20167;-81
2020/12/15 05:27:00;;;;;;;1999.90;999.90;;;7.90;99.90;;;;;;4962674;28;20192;-82
2020/12/15 05:29:27;;;;;;;1999.90;999.90;;;7.80;99.90;;;;;;4962903;28;20595;-82
2020/12/15 05:31:53;;;;;;;1999.90;999.90;;;7.80;99.90;;;;;;4980247;28;20585;-82
2020/12/15 05:34:26;;;;;;;1999.90;999.90;;;7.80;99.90;;;;;;4979397;28;20174;-82
2020/12/15 05:36:57;;;;;;;1999.90;999.90;;;7.80;99.90;;;;;;4962812;28;20170;-82
2020/12/15 05:39:24;;;;;;;1999.90;999.90;;;7.90;99.90;;;;;;4979846;28;20190;-82
2020/12/15 05:42:19;;;;;;;1999.90;999.90;;;7.90;99.90;;;;;;4961479;28;20187;-82
2020/12/15 05:44:46;;;;;;;1999.90;999.90;;;8.00;99.90;;;;;;4950155;28;20175;-83
2020/12/15 05:47:11;;;;;;;1999.90;999.90;;;8.00;99.90;;;;;;4946491;28;20218;-82
2020/12/15 05:49:41;;;;;;;1999.90;999.90;;;8.00;99.90;;;;;;4979759;28;20159;-83
2020/12/15 05:52:08;;;;;;;1999.90;999.90;;;8.00;99.90;;;;;;4979019;28;20167;-83
2020/12/15 05:54:36;;;;;;;1999.90;999.90;;;8.00;99.90;;;;;;4979029;28;20164;-83
2020/12/15 05:57:06;;;;;;;1999.90;999.90;;;8.00;99.90;;;;;;4961634;28;20179;-82
2020/12/15 05:59:34;;;;;;;1999.90;999.90;;;8.00;99.90;;;;;;4961617;28;20159;-82
2020/12/15 06:02:07;;;;;;;1999.90;999.90;;;8.00;99.90;;;;;;4979050;28;20170;-82
2020/12/15 06:04:35;;;;;;;1999.90;999.90;;;8.00;99.90;;;;;;4977417;28;20167;-82
2020/12/15 06:07:04;;;;;;;1999.90;999.90;;;8.00;99.90;;;;;;4978733;28;20249;-82
2020/12/15 06:09:31;;;;;;;1999.90;999.90;;;8.10;99.90;;;;;;4945424;28;20176;-83
2020/12/15 06:11:57;;;;;;;1999.90;999.90;;;8.10;99.90;;;;;;4979079;28;20256;-82
2020/12/15 06:14:26;;;;;;;1999.90;999.90;;;8.10;99.90;;;;;;4961474;28;20192;-82
2020/12/15 06:16:55;;;;;;;1999.90;999.90;;;8.10;99.90;;;;;;4977620;28;20160;-82
2020/12/15 06:19:22;;;;;;;1999.90;999.90;;;8.10;99.90;;;;;;4960807;28;20167;-81
2020/12/15 06:21:52;;;;;;;1999.90;999.90;;;8.10;99.90;;;;;;4978417;28;20170;-82
2020/12/15 06:24:37;;;;;;;1999.90;999.90;;;8.10;99.90;;;;;;4978071;28;20155;-82
2020/12/15 06:27:04;;;;;;;1999.90;999.90;;;8.10;99.90;;;;;;4978437;28;20148;-82
2020/12/15 06:29:33;;;;;;;1999.90;999.90;;;8.10;99.90;;;;;;4978248;28;20200;-82
2020/12/15 06:32:00;;;;;;;1999.90;999.90;;;8.10;99.90;;;;;;4960706;28;20171;-82
2020/12/15 06:34:29;;;;;;;1999.90;999.90;;;8.10;99.90;;;;;;4961302;28;20175;-81
2020/12/15 06:36:55;;;;;;;1999.90;999.90;;;8.10;99.90;;;;;;4960747;28;20167;-81
2020/12/15 06:39:23;;;;;;;1999.90;999.90;;;8.10;99.90;;;;;;4960397;28;20246;-81
2020/12/15 06:42:03;;;;;;;1999.90;999.90;;;8.10;99.90;;;;;;4977305;28;20202;-81
2020/12/15 06:44:36;;;;;;;1999.90;999.90;;;8.10;99.90;;;;;;4960305;28;20181;-81
2020/12/15 06:47:06;;;;;;;1999.90;999.90;;;8.10;99.90;;;;;;4978201;28;20650;-81
2020/12/15 06:49:36;;;;;;;1999.90;999.90;;;8.10;99.90;;;;;;4960377;28;20533;-82
2020/12/15 06:52:07;;;;;;;1999.90;999.90;;;8.10;99.90;;;;;;4960195;28;20276;-82
2020/12/15 06:54:35;;;;;;;1999.90;999.90;;;8.10;99.90;;;;;;4977362;28;20627;-80
2020/12/15 06:57:03;;;;;;;1999.90;999.90;;;8.10;99.90;;;;;;4959710;28;20175;-81
2020/12/15 06:59:30;;;;;;;1999.90;999.90;;;8.10;99.90;;;;;;4977813;28;20158;-82
2020/12/15 07:02:09;;;;;;;1999.90;999.90;;;8.10;99.90;;;;;;4976671;28;20159;-82
2020/12/15 07:04:48;;;;;;;1999.90;999.90;;;8.10;99.90;;;;;;4960494;28;20529;-83
2020/12/15 07:07:15;;;;;;;1999.90;999.90;;;8.10;99.90;;;;;;4976738;28;20646;-83
2020/12/15 07:09:47;;;;;;;1999.90;999.90;;;8.10;99.90;;;;;;4960685;28;20175;-83
2020/12/15 07:12:13;;;;;;;1999.90;999.90;;;8.10;99.90;;;;;;4975909;28;20191;-84
2020/12/15 07:14:42;;;;;;;1999.90;999.90;;;8.10;99.90;;;;;;4959767;28;20167;-83
2020/12/15 07:17:08;;;;;;;1999.90;999.90;;;8.20;99.90;;;;;;4977693;28;20160;-83
2020/12/15 07:19:37;;;;;;;1999.90;999.90;;;8.10;99.90;;;;;;4976655;28;20758;-83
2020/12/15 07:22:04;;;;;;;1999.90;999.90;;;8.10;99.90;;;;;;4976901;28;21038;-82
2020/12/15 07:24:45;;;;;;;1999.90;999.90;;;8.20;99.90;;;;;;4958624;28;20183;-82
2020/12/15 07:27:23;;;;;;;1999.90;999.90;;;8.10;99.90;;;;;;4976176;28;20166;-83
2020/12/15 07:29:55;;;;;;;1999.90;999.90;;;8.10;99.90;;;;;;4977216;28;20231;-83
2020/12/15 07:32:51;;;;;;;1999.90;999.90;;;8.10;99.90;;;;;;4959495;28;20197;-83
2020/12/15 07:35:33;;;;;;;1999.90;999.90;;;8.10;99.90;;;;;;4953140;28;20681;-83
2020/12/15 07:38:02;;;;;;;1999.90;999.90;;;8.10;99.90;;;;;;4960040;28;20258;-83
2020/12/15 07:40:30;;;;;;;1999.90;999.90;;;8.10;99.90;;;;;;4959795;28;20179;-83
2020/12/15 07:43:00;;;;;;;1999.90;999.90;;;8.10;99.90;;;;;;4977575;28;20179;-82
2020/12/15 07:45:31;;;;;;;1999.90;999.90;;;8.10;99.90;;;;;;4977951;28;20187;-82
2020/12/15 07:48:03;;;;;;;1999.90;999.90;;;8.10;99.90;;;;;;4977656;28;20170;-82
2020/12/15 07:50:30;;;;;;;1999.90;999.90;;;8.10;99.90;;;;;;4959635;28;20542;-82
2020/12/15 07:53:23;;;;;;;;;;;;;;;;;;;;;
2020/12/15 07:56:10;;;;;;;1999.90;999.90;;;8.10;99.90;;;;;;4975835;28;20150;-81
2020/12/15 07:58:39;;;;;;;1999.90;999.90;;;8.10;99.90;;;;;;4975272;28;20552;-81
2020/12/15 08:01:05;;;;;;;1999.90;999.90;;;8.20;99.90;;;;;;4976145;28;20534;-81
2020/12/15 08:03:37;;;;;;;1999.90;999.90;;;8.20;99.90;;;;;;4960423;28;20250;-82
2020/12/15 08:06:14;;;;;;;1999.90;999.90;;;8.20;99.90;;;;;;4976721;28;20399;-82
2020/12/15 08:08:44;;;;;;;1999.90;999.90;;;8.20;99.90;;;;;;4976964;28;20170;-82
2020/12/15 08:11:19;;;;;;;1999.90;999.90;;;8.20;99.90;;;;;;4959567;28;20171;-82
2020/12/15 08:13:47;;;;;;;1999.90;999.90;;;8.30;99.90;;;;;;4976547;28;20182;-82
2020/12/15 08:16:32;;;;;;;1999.90;999.90;;;8.30;99.90;;;;;;4959288;28;20208;-82
2020/12/15 08:19:07;;;;;;;1999.90;999.90;;;8.30;99.90;;;;;;4976597;28;20160;-82
2020/12/15 08:22:03;;;;;;;1999.90;999.90;;;8.30;99.90;;;;;;4976302;28;20535;-82
2020/12/15 08:24:54;;;;;;;1999.90;999.90;;;8.40;99.90;;;;;;4974063;28;20214;-81
2020/12/15 08:27:29;;;;;;;1999.90;999.90;;;8.30;99.90;;;;;;4975659;28;20171;-81
2020/12/15 08:30:20;;;;;;;1999.90;999.90;;;8.40;99.90;;;;;;4958923;28;20301;-82
2020/12/15 08:32:50;;;;;;;1999.90;999.90;;;8.40;99.90;;;;;;4959285;28;20187;-82
2020/12/15 08:35:35;;;;;;;1999.90;999.90;;;8.40;99.90;;;;;;4959891;28;20164;-82
2020/12/15 08:38:07;;;;;;;1999.90;999.90;;;8.40;99.90;;;;;;4959457;28;20167;-82
2020/12/15 08:40:32;;;;;;;1999.90;999.90;;;8.40;99.90;;;;;;4962529;28;20232;-82
2020/12/15 08:43:05;;;;;;;1999.90;999.90;;;8.50;99.90;;;;;;4962507;28;20178;-81
2020/12/15 08:45:41;;;;;;;1999.90;999.90;;;8.50;99.90;;;;;;4979585;28;20437;-82
2020/12/15 08:48:16;;;;;;;1999.90;999.90;;;8.40;99.90;;;;;;4980265;28;20571;-82
2020/12/15 08:50:41;;;;;;;1999.90;999.90;;;8.50;99.90;;;;;;4979130;28;20151;-81
2020/12/15 08:53:43;;;;;;;1999.90;999.90;;;8.50;99.90;;;;;;4979428;28;20179;-81
2020/12/15 08:56:21;;;;;;;1999.90;999.90;;;8.60;99.90;;;;;;4968780;28;20693;-81
2020/12/15 08:58:46;;;;;;;1999.90;999.90;;;8.60;99.90;;;;;;4979095;28;20147;-82
2020/12/15 09:01:44;;;;;;;1999.90;999.90;;;8.60;99.90;;;;;;4962625;28;20738;-81
2020/12/15 09:04:43;;;;;;;1999.90;999.90;;;8.60;99.90;;;;;;4978321;28;20626;-81
2020/12/15 09:08:07;;;;;;;1999.90;999.90;;;8.50;99.90;;;;;;4962408;28;20163;-81
2020/12/15 09:11:21;;;;;;;1999.90;999.90;;;8.50;99.90;;;;;;4930380;28;20183;-81
2020/12/15 09:14:06;;;;;;;1999.90;999.90;;;8.50;99.90;;;;;;4978908;28;20186;-81
2020/12/15 09:16:50;;;;;;;1999.90;999.90;;;8.50;99.90;;;;;;4979329;28;20642;-81
2020/12/15 09:20:00;;;;;;;1999.90;999.90;;;8.50;99.90;;;;;;4977651;28;20203;-80
2020/12/15 09:22:42;;;;;;;1999.90;999.90;;;8.60;99.90;;;;;;4958414;28;20174;-81
2020/12/15 09:25:14;;;;;;;1999.90;999.90;;;8.60;99.90;;;;;;4979124;28;20156;-81
2020/12/15 09:27:45;;;;;;;1999.90;999.90;;;8.60;99.90;;;;;;4961313;28;20266;-81
2020/12/15 09:30:23;;;;;;;1999.90;999.90;;;8.70;99.90;;;;;;4978443;28;20243;-81
2020/12/15 09:33:48;;;;;;;;;;;;;;;;;;;;;
2020/12/15 09:36:22;;;;;;;1999.90;999.90;;;8.70;99.90;;;;;;4974098;28;20735;-81
2020/12/15 09:38:51;;;;;;;1999.90;999.90;;;8.70;99.90;;;;;;4977889;28;20155;-81
2020/12/15 09:41:36;;;;;;;1999.90;999.90;;;8.70;99.90;;;;;;4977176;28;20171;-81
2020/12/15 09:45:00;;;;;;;1999.90;999.90;;;8.70;99.90;;;;;;4936546;29;20766;-80
2020/12/15 09:47:59;;;;;;;1999.90;999.90;;;8.80;99.90;;;;;;4843538;29;20284;-81
2020/12/15 09:56:54;;;;;;;1999.90;999.90;;;8.90;99.90;;;;;;4839354;29;20180;-81
2020/12/15 09:59:20;;;;;;;1999.90;999.90;;;8.80;99.90;;;;;;4946189;28;20187;-81
2020/12/15 10:01:52;;;;;;;1999.90;999.90;;;8.80;99.90;;;;;;4977744;28;20244;-81
2020/12/15 10:07:29;;;;;;;1999.90;999.90;;;8.80;99.90;;;;;;4970501;28;20189;-81
2020/12/15 10:13:07;;;;;;;1999.90;999.90;;;8.90;99.90;;;;;;4936081;29;20304;-80
2020/12/15 10:15:41;;;;;;;1999.90;999.90;;;8.90;99.90;;;;;;4969918;28;20171;-81
2020/12/15 10:18:12;;;;;;;1999.90;999.90;;;8.90;99.90;;;;;;4976097;28;20174;-81
2020/12/15 10:21:18;;;;;;;1999.90;999.90;;;9.00;99.90;;;;;;4960403;28;20156;-81
2020/12/15 10:30:26;;;;;;;1999.90;999.90;;;9.00;99.90;;;;;;4910234;29;20209;-81
2020/12/15 10:33:29;;;;;;;1999.90;999.90;;;9.20;99.90;;;;;;4927958;28;20652;-81
2020/12/15 10:39:29;;;;;;;1999.90;999.90;;;9.10;99.90;;;;;;4909811;29;20181;-81
2020/12/15 10:42:42;;;;;;;;;;;;;;;;;;;;;
2020/12/15 10:45:11;;;;;;;1999.90;999.90;;;9.10;99.90;;;;;;4917591;29;20187;-82
2020/12/15 10:48:06;;;;;;;1999.90;999.90;;;9.20;99.90;;;;;;4901755;29;20363;-81
2020/12/15 10:54:50;;;;;;;1999.90;999.90;;;9.20;99.90;;;;;;4916738;29;20236;-80
2020/12/15 10:57:26;;;;;;;1999.90;999.90;;;9.20;99.90;;;;;;4898751;29;20185;-81
2020/12/15 10:59:58;;;;;;;1999.90;999.90;;;9.20;99.90;;;;;;4976707;28;20151;-80
2020/12/15 11:02:27;;;;;;;1999.90;999.90;;;9.30;99.90;;;;;;4977171;28;20163;-81
2020/12/15 11:04:53;;;;;;;1999.90;999.90;;;9.30;99.90;;;;;;4977461;28;20167;-81
2020/12/15 11:07:18;;;;;;;1999.90;999.90;;;9.30;99.90;;;;;;4976469;28;20175;-81
2020/12/15 11:09:47;;;;;;;1999.90;999.90;;;9.30;99.90;;;;;;4960153;28;20639;-82
2020/12/15 11:12:13;;;;;;;1999.90;999.90;;;9.30;99.90;;;;;;4960058;28;20647;-82
2020/12/15 11:14:44;;;;;;;1999.90;999.90;;;9.20;99.90;;;;;;4960536;28;20173;-81
2020/12/15 11:17:15;;;;;;;1999.90;999.90;;;9.20;99.90;;;;;;4977383;28;20171;-81
2020/12/15 11:19:41;;;;;;;1999.90;999.90;;;9.20;99.90;;;;;;4959987;28;20163;-81
2020/12/15 11:22:07;;;;;;;1999.90;999.90;;;9.30;99.90;;;;;;4976489;28;20167;-81
2020/12/15 11:24:42;;;;;;;1999.90;999.90;;;9.20;99.90;;;;;;4959219;28;20410;-82
2020/12/15 11:27:08;;;;;;;1999.90;999.90;;;9.20;99.90;;;;;;4959157;28;20536;-81
2020/12/15 11:29:34;;;;;;;1999.90;999.90;;;9.20;99.90;;;;;;4976070;28;20219;-82
2020/12/15 11:32:03;;;;;;;1999.90;999.90;;;9.20;99.90;;;;;;4976066;28;20403;-82
2020/12/15 11:34:34;;;;;;;1999.90;999.90;;;9.20;99.90;;;;;;4959451;28;20262;-81
2020/12/15 11:37:00;;;;;;;1999.90;999.90;;;9.30;99.90;;;;;;4976358;28;20159;-82
2020/12/15 11:39:29;;;;;;;1999.90;999.90;;;9.20;99.90;;;;;;4976151;28;20174;-81
2020/12/15 11:41:55;;;;;;;1999.90;999.90;;;9.20;99.90;;;;;;4976136;28;20819;-81
2020/12/15 11:44:29;;;;;;;1999.90;999.90;;;9.20;99.90;;;;;;4959739;28;20262;-82
2020/12/15 11:47:04;;;;;;;1999.90;999.90;;;9.20;99.90;;;;;;4975517;28;20529;-82
2020/12/15 11:49:36;;;;;;;1999.90;999.90;;;9.20;99.90;;;;;;4959389;28;20182;-82
2020/12/15 11:52:05;;;;;;;1999.90;999.90;;;9.20;99.90;;;;;;4959079;28;20182;-82
2020/12/15 11:54:31;;;;;;;1999.90;999.90;;;9.20;99.90;;;;;;4976282;28;20167;-82
2020/12/15 11:56:59;;;;;;;1999.90;999.90;;;9.20;99.90;;;;;;4958445;28;20610;-81
2020/12/15 11:59:28;;;;;;;1999.90;999.90;;;9.20;99.90;;;;;;4958559;28;20171;-83
2020/12/15 12:02:26;;;;;;;1999.90;999.90;;;9.20;99.90;;;;;;4975722;28;20504;-81
2020/12/15 12:05:22;;;;;;;1999.90;999.90;;;9.20;99.90;;;;;;4942609;28;20179;-81
2020/12/15 12:11:30;;;;;;;1999.90;999.90;;;9.20;99.90;;;;;;4964683;28;20176;-81
2020/12/15 12:14:35;;;;;;;;;;;;;;;;;;;;;
2020/12/15 12:17:04;;;;;;;1999.90;999.90;;;9.20;99.90;;;;;;4971861;28;20183;-82
2020/12/15 12:19:30;;;;;;;1999.90;999.90;;;9.20;99.90;;;;;;4981163;28;20247;-81
2020/12/15 12:21:56;;;;;;;1999.90;999.90;;;9.20;99.90;;;;;;4980961;28;20171;-82
2020/12/15 12:24:21;;;;;;;1999.90;999.90;;;9.20;99.90;;;;;;4963246;28;20171;-81
2020/12/15 12:26:53;;;;;;;1999.90;999.90;;;9.20;99.90;;;;;;4980363;28;20313;-82
2020/12/15 12:29:19;;;;;;;1999.90;999.90;;;9.20;99.90;;;;;;4964083;28;20183;-82
2020/12/15 12:31:48;;;;;;;1999.90;999.90;;;9.10;99.90;;;;;;4980320;28;20167;-82
2020/12/15 12:34:14;;;;;;;1999.90;999.90;;;9.20;99.90;;;;;;4963129;28;20247;-82
2020/12/15 12:36:46;;;;;;;1999.90;999.90;;;9.30;99.90;;;;;;4962597;28;20175;-81
2020/12/15 12:39:15;;;;;;;1999.90;999.90;;;9.30;99.90;;;;;;4980012;28;20539;-81
2020/12/15 12:41:43;;;;;;;1999.90;999.90;;;9.30;99.90;;;;;;4980385;28;20159;-81
2020/12/15 12:44:12;;;;;;;1999.90;999.90;;;9.20;99.90;;;;;;4980482;28;20158;-81
2020/12/15 12:46:42;;;;;;;1999.90;999.90;;;9.30;99.90;;;;;;4980665;28;20172;-81
2020/12/15 12:49:11;;;;;;;1999.90;999.90;;;9.30;99.90;;;;;;4964272;28;20523;-82
2020/12/15 12:51:55;;;;;;;1999.90;999.90;;;9.40;99.90;;;;;;4979680;28;20542;-82
2020/12/15 12:54:27;;;;;;;1999.90;999.90;;;9.30;99.90;;;;;;4963073;28;20203;-82
2020/12/15 12:57:03;;;;;;;1999.90;999.90;;;9.30;99.90;;;;;;4980237;28;20156;-82
2020/12/15 12:59:29;;;;;;;1999.90;999.90;;;9.40;99.90;;;;;;4980254;28;20159;-81
2020/12/15 13:02:08;;;;;;;1999.90;999.90;;;9.40;99.90;;;;;;4978287;28;20272;-82
2020/12/15 13:04:36;;;;;;;1999.90;999.90;;;9.30;99.90;;;;;;4980130;28;20150;-82
2020/12/15 13:07:14;;;;;;;1999.90;999.90;;;9.40;99.90;;;;;;4979268;28;20627;-82